createdAt,value
2019-04-30T04:40:48.095Z,144
2019-04-30T04:42:00.566Z,232
2019-04-30T04:43:12.798Z,256
2019-04-30T04:44:25.149Z,264
2019-04-30T04:45:37.504Z,248
2019-04-30T04:46:49.944Z,272
2019-04-30T04:48:02.316Z,292
2019-04-30T04:49:14.579Z,296
2019-04-30T04:50:26.945Z,308
2019-04-30T04:51:39.462Z,316
2019-04-30T04:52:53.786Z,316
2019-04-30T04:54:04.011Z,340
2019-04-30T04:55:16.405Z,348
2019-04-30T04:56:28.776Z,340
2019-04-30T04:57:41.051Z,368
2019-04-30T04:58:53.468Z,424
2019-04-30T05:00:05.892Z,432
2019-04-30T05:01:18.224Z,448
2019-04-30T05:02:30.480Z,452
2019-04-30T05:03:42.918Z,480
2019-04-30T05:04:55.279Z,396
2019-04-30T05:06:07.540Z,488
2019-04-30T05:07:21.544Z,496
2019-04-30T05:08:32.236Z,440
2019-04-30T05:10:57.040Z,460
2019-04-30T05:12:09.296Z,432
2019-04-30T05:13:21.743Z,520
2019-04-30T05:14:34.040Z,560
2019-04-30T05:15:46.384Z,512
2019-04-30T05:16:58.893Z,512
2019-04-30T05:18:11.084Z,472
2019-04-30T05:19:23.505Z,436
2019-04-30T05:20:35.845Z,524
2019-04-30T05:21:48.169Z,560
2019-04-30T05:23:00.760Z,564
2019-04-30T05:24:12.896Z,532
2019-04-30T05:25:25.587Z,552
2019-04-30T05:26:37.710Z,652
2019-04-30T05:27:50.002Z,680
2019-04-30T05:29:02.271Z,880
2019-04-30T05:30:14.682Z,960
2019-04-30T05:31:30.390Z,828
2019-04-30T05:32:39.334Z,840
2019-04-30T05:35:04.026Z,640
2019-04-30T05:36:16.394Z,708
2019-04-30T05:37:28.918Z,720
2019-04-30T05:38:41.103Z,680
2019-04-30T05:39:53.494Z,636
2019-04-30T05:41:05.804Z,736
2019-04-30T05:42:18.174Z,1008
2019-04-30T05:43:30.521Z,1128
2019-04-30T05:44:42.899Z,1316
2019-04-30T05:45:55.259Z,1456
2019-04-30T05:47:07.590Z,1312
2019-04-30T05:48:19.929Z,1280
2019-04-30T05:49:32.284Z,1260
2019-04-30T05:50:44.634Z,1164
2019-04-30T05:51:57.088Z,920
2019-04-30T05:53:09.387Z,824
2019-04-30T05:54:21.788Z,936
2019-04-30T05:55:34.214Z,1144
2019-04-30T05:56:46.456Z,1220
2019-04-30T05:57:58.807Z,1148
2019-04-30T05:59:11.128Z,1360
2019-04-30T06:00:23.475Z,1092
2019-04-30T06:01:35.918Z,928
2019-04-30T06:02:48.199Z,788
2019-04-30T06:04:00.541Z,856
2019-04-30T06:05:12.923Z,976
2019-04-30T06:06:25.244Z,884
2019-04-30T06:07:37.647Z,896
2019-04-30T06:08:49.961Z,812
2019-04-30T06:10:02.331Z,920
2019-04-30T06:11:14.661Z,984
2019-04-30T06:12:27.039Z,1580
2019-04-30T06:13:39.380Z,1944
2019-04-30T06:14:51.765Z,2136
2019-04-30T06:16:04.241Z,1920
2019-04-30T06:17:16.536Z,1736
2019-04-30T06:18:28.826Z,1540
2019-04-30T06:19:41.189Z,1712
2019-04-30T06:20:53.594Z,1976
2019-04-30T06:22:05.860Z,2212
2019-04-30T06:23:18.329Z,2164
2019-04-30T06:24:30.573Z,2644
2019-04-30T06:25:42.976Z,3156
2019-04-30T06:26:55.266Z,3108
2019-04-30T06:28:07.673Z,3180
2019-04-30T06:29:20.000Z,3220
2019-04-30T06:30:32.337Z,3132
2019-04-30T06:31:44.760Z,3080
2019-04-30T06:32:57.076Z,3108
2019-04-30T06:34:09.480Z,2844
2019-04-30T06:35:21.785Z,2528
2019-04-30T06:36:34.109Z,2564
2019-04-30T06:37:46.562Z,2560
2019-04-30T06:38:58.872Z,3220
2019-04-30T06:40:11.738Z,3364
2019-04-30T06:41:23.538Z,3228
2019-04-30T06:42:35.885Z,5176
2019-04-30T06:43:48.275Z,5712
2019-04-30T06:45:00.586Z,5760
2019-04-30T06:47:25.319Z,5472
2019-04-30T06:48:37.654Z,5224
2019-04-30T06:49:50.255Z,4796
2019-04-30T06:51:02.371Z,4848
2019-04-30T06:52:14.719Z,4880
2019-04-30T06:53:27.286Z,4976
2019-04-30T06:54:39.553Z,5224
2019-04-30T06:55:52.721Z,4692
2019-04-30T06:57:04.238Z,4876
2019-04-30T06:58:16.572Z,4644
2019-04-30T06:59:29.037Z,4560
2019-04-30T07:00:41.299Z,5100
2019-04-30T07:03:06.000Z,4072
2019-04-30T07:04:18.399Z,3596
2019-04-30T07:05:30.735Z,3728
2019-04-30T07:06:43.073Z,3828
2019-04-30T07:10:20.142Z,3128
2019-04-30T07:11:32.383Z,3024
2019-04-30T07:12:44.881Z,2896
2019-04-30T07:13:57.336Z,2920
2019-04-30T07:15:09.511Z,2992
2019-04-30T07:16:21.935Z,3100
2019-04-30T07:17:34.230Z,3008
2019-04-30T07:18:46.643Z,2888
2019-04-30T07:19:58.898Z,2756
2019-04-30T07:21:11.217Z,2676
2019-04-30T07:22:23.742Z,2816
2019-04-30T07:23:36.054Z,2916
2019-04-30T07:24:48.349Z,3088
2019-04-30T07:26:01.015Z,3176
2019-04-30T07:28:25.522Z,3308
2019-04-30T07:29:37.816Z,3292
2019-04-30T07:30:50.324Z,5336
2019-04-30T07:33:14.912Z,22944
2019-04-30T07:34:27.247Z,4116
2019-04-30T07:38:04.337Z,16128
2019-04-30T07:39:17.083Z,18560
2019-04-30T07:40:28.900Z,17088
2019-04-30T07:42:53.720Z,19968
2019-04-30T07:44:08.284Z,18528
2019-04-30T07:45:18.435Z,20800
2019-04-30T07:46:30.833Z,22112
2019-04-30T07:47:43.135Z,23200
2019-04-30T07:48:55.544Z,25056
2019-04-30T07:52:32.466Z,4944
2019-04-30T07:53:44.808Z,4560
2019-04-30T07:54:57.281Z,4632
2019-04-30T07:56:09.569Z,5780
2019-04-30T07:57:21.869Z,2552
2019-04-30T07:59:46.641Z,3800
2019-04-30T08:00:58.985Z,3936
2019-04-30T08:02:11.326Z,6740
2019-04-30T08:03:23.651Z,6436
2019-04-30T08:04:36.059Z,6336
2019-04-30T08:05:48.401Z,6460
2019-04-30T08:07:05.277Z,6288
2019-04-30T08:08:13.047Z,6048
2019-04-30T08:09:25.430Z,5736
2019-04-30T08:10:37.802Z,5472
2019-04-30T08:11:50.264Z,5712
2019-04-30T08:13:02.467Z,5532
2019-04-30T08:14:14.809Z,5448
2019-04-30T08:15:27.251Z,5424
2019-04-30T08:16:39.654Z,5468
2019-04-30T08:17:51.910Z,5112
2019-04-30T08:19:04.264Z,4772
2019-04-30T08:20:16.611Z,4644
2019-04-30T08:21:28.953Z,4764
2019-04-30T08:22:41.372Z,4700
2019-04-30T08:23:53.657Z,4624
2019-04-30T08:25:06.067Z,4744
2019-04-30T08:26:18.906Z,4532
2019-04-30T08:27:30.939Z,4596
2019-04-30T08:28:46.284Z,4624
2019-04-30T08:29:55.416Z,4652
2019-04-30T08:31:07.977Z,4232
2019-04-30T08:32:20.189Z,3948
2019-04-30T08:33:32.598Z,3912
2019-04-30T08:34:44.843Z,3580
2019-04-30T08:35:57.214Z,3868
2019-04-30T08:37:09.602Z,4256
2019-04-30T08:38:21.923Z,5084
2019-04-30T08:39:34.453Z,6228
2019-04-30T08:40:46.619Z,6916
2019-04-30T08:41:59.050Z,7008
2019-04-30T08:43:11.382Z,6304
2019-04-30T08:44:23.680Z,6672
2019-04-30T08:45:36.055Z,6380
2019-04-30T08:48:00.883Z,5032
2019-04-30T08:49:13.117Z,4288
2019-04-30T08:50:25.535Z,4716
2019-04-30T08:51:37.801Z,4320
2019-04-30T08:52:50.426Z,4652
2019-04-30T08:54:02.520Z,4252
2019-04-30T08:55:14.867Z,4332
2019-04-30T08:56:27.347Z,4032
2019-04-30T08:57:39.607Z,4072
2019-04-30T08:58:52.001Z,4188
2019-04-30T09:00:04.383Z,3900
2019-04-30T09:01:22.468Z,3896
2019-04-30T09:02:29.018Z,3952
2019-04-30T09:03:41.526Z,3928
2019-04-30T09:04:53.787Z,3880
2019-04-30T09:06:06.074Z,4072
2019-04-30T09:07:18.847Z,4132
2019-04-30T09:08:30.792Z,4052
2019-04-30T09:09:43.156Z,3784
2019-04-30T09:12:07.823Z,3852
2019-04-30T09:13:20.328Z,3836
2019-04-30T09:14:32.834Z,3928
2019-04-30T09:15:45.008Z,3816
2019-04-30T09:16:57.276Z,3828
2019-04-30T09:18:09.701Z,3700
2019-04-30T09:19:21.996Z,3480
2019-04-30T09:20:34.319Z,3472
2019-04-30T09:21:46.667Z,3424
2019-04-30T09:22:59.039Z,3356
2019-04-30T09:24:11.391Z,3472
2019-04-30T09:25:23.846Z,3480
2019-04-30T09:26:36.400Z,3364
2019-04-30T09:27:48.455Z,3244
2019-04-30T09:29:04.646Z,3200
2019-04-30T09:30:13.398Z,3248
2019-04-30T09:31:25.520Z,3276
2019-04-30T09:32:37.887Z,3312
2019-04-30T09:33:50.273Z,3320
2019-04-30T09:36:14.929Z,3356
2019-04-30T09:37:27.362Z,3308
2019-04-30T09:38:39.633Z,3208
2019-04-30T09:39:52.135Z,3268
2019-04-30T09:41:04.591Z,3292
2019-04-30T09:42:16.728Z,3308
2019-04-30T09:43:29.099Z,3436
2019-04-30T09:44:41.550Z,3444
2019-04-30T09:47:06.285Z,3388
2019-04-30T09:48:18.491Z,3368
2019-04-30T09:49:30.831Z,3364
2019-04-30T09:50:43.210Z,3260
2019-04-30T09:51:56.254Z,3208
2019-04-30T09:53:08.136Z,3276
2019-04-30T09:54:20.333Z,3304
2019-04-30T09:55:32.608Z,3328
2019-04-30T09:56:47.407Z,3380
2019-04-30T09:57:57.399Z,3496
2019-04-30T09:59:09.669Z,3576
2019-04-30T10:00:22.400Z,3516
2019-04-30T10:01:34.441Z,3520
2019-04-30T10:02:46.826Z,3496
2019-04-30T10:03:59.198Z,3568
2019-04-30T10:05:11.470Z,3640
2019-04-30T10:06:23.806Z,3592
2019-04-30T10:07:36.213Z,3508
2019-04-30T10:08:48.722Z,3404
2019-04-30T10:10:00.864Z,3476
2019-04-30T10:11:13.262Z,3432
2019-04-30T10:12:25.607Z,3368
2019-04-30T10:13:38.338Z,3404
2019-04-30T10:14:50.473Z,3428
2019-04-30T10:16:02.646Z,3368
2019-04-30T10:17:15.011Z,3416
2019-04-30T10:18:27.341Z,3340
2019-04-30T10:19:39.700Z,3300
2019-04-30T10:20:52.243Z,3292
2019-04-30T10:22:04.413Z,3172
2019-04-30T10:24:29.186Z,3152
2019-04-30T10:25:41.590Z,3160
2019-04-30T10:26:53.893Z,3176
2019-04-30T10:28:06.218Z,3160
2019-04-30T10:29:18.611Z,3248
2019-04-30T10:30:30.917Z,3424
2019-04-30T10:31:43.320Z,3572
2019-04-30T10:32:58.324Z,3276
2019-04-30T10:34:07.969Z,2920
2019-04-30T10:35:20.515Z,2592
2019-04-30T10:36:32.670Z,2596
2019-04-30T10:37:45.100Z,3208
2019-04-30T10:38:57.391Z,3340
2019-04-30T10:40:09.832Z,3300
2019-04-30T10:41:22.334Z,3240
2019-04-30T10:42:34.509Z,3172
2019-04-30T10:43:46.798Z,3184
2019-04-30T10:44:59.249Z,3204
2019-04-30T10:46:11.531Z,3324
2019-04-30T10:48:36.330Z,3488
2019-04-30T10:49:53.662Z,3588
2019-04-30T10:51:00.939Z,3608
2019-04-30T10:52:13.300Z,3732
2019-04-30T10:53:25.705Z,3768
2019-04-30T10:54:38.008Z,3776
2019-04-30T10:55:53.546Z,3716
2019-04-30T10:57:05.094Z,3428
2019-04-30T10:58:15.159Z,3120
2019-04-30T10:59:27.420Z,2992
2019-04-30T11:00:39.914Z,2980
2019-04-30T11:01:52.127Z,3080
2019-04-30T11:03:04.508Z,3124
2019-04-30T11:04:16.830Z,3160
2019-04-30T11:05:29.246Z,3276
2019-04-30T11:06:41.560Z,3328
2019-04-30T11:07:53.891Z,3412
2019-04-30T11:09:06.299Z,3348
2019-04-30T11:10:18.612Z,3376
2019-04-30T11:11:31.056Z,3392
2019-04-30T11:12:43.339Z,3412
2019-04-30T11:13:55.865Z,3580
2019-04-30T11:15:08.037Z,3720
2019-04-30T11:16:20.404Z,4040
2019-04-30T11:17:32.759Z,4412
2019-04-30T11:18:45.203Z,4732
2019-04-30T11:19:57.544Z,5140
2019-04-30T11:21:09.880Z,5732
2019-04-30T11:22:22.164Z,6052
2019-04-30T11:23:36.062Z,5372
2019-04-30T11:24:50.411Z,4560
2019-04-30T11:26:01.751Z,3988
2019-04-30T11:27:11.572Z,3640
2019-04-30T11:28:24.102Z,3428
2019-04-30T11:30:48.686Z,3572
2019-04-30T11:32:01.035Z,3576
2019-04-30T11:33:13.389Z,3716
2019-04-30T11:34:25.835Z,3936
2019-04-30T11:36:50.683Z,4088
2019-04-30T11:38:02.865Z,4196
2019-04-30T11:39:15.212Z,4280
2019-04-30T11:40:27.499Z,4432
2019-04-30T11:41:41.061Z,4176
2019-04-30T11:42:52.533Z,3964
2019-04-30T11:44:04.557Z,3804
2019-04-30T11:45:16.925Z,3664
2019-04-30T11:46:29.256Z,3500
2019-04-30T11:47:41.627Z,3424
2019-04-30T11:48:54.026Z,3364
2019-04-30T11:50:06.424Z,3272
2019-04-30T11:51:20.451Z,3276
2019-04-30T11:52:35.344Z,3300
2019-04-30T11:53:43.594Z,3392
2019-04-30T11:54:55.863Z,3616
2019-04-30T11:56:09.029Z,4160
2019-04-30T11:57:20.571Z,4664
2019-04-30T11:58:32.822Z,4656
2019-04-30T12:00:57.535Z,5392
2019-04-30T12:02:13.464Z,4656
2019-04-30T12:03:22.846Z,4092
2019-04-30T12:04:34.583Z,3768
2019-04-30T12:05:46.982Z,3920
2019-04-30T12:06:59.294Z,3964
2019-04-30T12:08:11.684Z,4444
2019-04-30T12:09:24.109Z,4308
2019-04-30T12:10:36.483Z,4168
2019-04-30T12:11:48.825Z,4116
2019-04-30T12:13:01.074Z,4068
2019-04-30T12:14:13.435Z,3920
2019-04-30T12:15:25.789Z,3712
2019-04-30T12:16:38.230Z,3676
2019-04-30T12:17:50.517Z,3616
2019-04-30T12:19:02.890Z,3552
2019-04-30T12:20:15.298Z,3476
2019-04-30T12:21:27.731Z,3412
2019-04-30T12:22:39.902Z,3404
2019-04-30T12:23:52.327Z,3392
2019-04-30T12:25:04.732Z,3384
2019-04-30T12:26:16.989Z,3380
2019-04-30T12:27:29.339Z,3384
2019-04-30T12:28:41.834Z,3428
2019-04-30T12:29:54.046Z,3500
2019-04-30T12:31:06.936Z,3584
2019-04-30T12:32:18.758Z,3636
2019-04-30T12:33:35.818Z,3800
2019-04-30T12:34:43.459Z,4216
2019-04-30T12:35:55.846Z,4756
2019-04-30T12:37:08.300Z,5064
2019-04-30T12:38:20.790Z,4976
2019-04-30T12:39:35.549Z,4492
2019-04-30T12:40:45.341Z,4144
2019-04-30T12:41:57.663Z,3920
2019-04-30T12:43:10.079Z,3704
2019-04-30T12:44:22.350Z,3496
2019-04-30T12:45:34.652Z,3836
2019-04-30T12:46:47.024Z,4012
2019-04-30T12:49:11.750Z,4220
2019-04-30T12:51:36.517Z,3976
2019-04-30T12:52:48.819Z,3988
2019-04-30T12:54:01.149Z,3960
2019-04-30T12:55:13.551Z,4084
2019-04-30T12:56:26.973Z,4208
2019-04-30T12:57:38.366Z,4184
2019-04-30T12:58:50.591Z,3996
2019-04-30T13:00:03.132Z,3868
2019-04-30T13:01:15.372Z,3784
2019-04-30T13:02:27.634Z,3924
2019-04-30T13:03:40.053Z,4052
2019-04-30T13:04:52.401Z,3992
2019-04-30T13:06:04.690Z,3900
2019-04-30T13:07:17.188Z,3824
2019-04-30T13:08:29.438Z,3780
2019-04-30T13:09:41.799Z,3760
2019-04-30T13:10:54.119Z,3788
2019-04-30T13:13:18.861Z,3904
2019-04-30T13:14:31.196Z,4000
2019-04-30T13:15:43.570Z,4120
2019-04-30T13:16:55.943Z,4152
2019-04-30T13:18:08.270Z,4116
2019-04-30T13:19:21.657Z,4048
2019-04-30T13:20:32.965Z,4004
2019-04-30T13:21:45.323Z,3980
2019-04-30T13:22:57.705Z,3960
2019-04-30T13:24:10.182Z,4004
2019-04-30T13:25:22.392Z,4028
2019-04-30T13:26:34.839Z,4028
2019-04-30T13:27:47.079Z,4008
2019-04-30T13:28:59.452Z,3984
2019-04-30T13:30:11.846Z,3968
2019-04-30T13:31:24.149Z,3976
2019-04-30T13:32:36.587Z,4056
2019-04-30T13:33:48.897Z,4212
2019-04-30T13:35:01.400Z,4296
2019-04-30T13:37:25.924Z,4300
2019-04-30T13:38:38.273Z,4320
2019-04-30T13:39:50.956Z,4460
2019-04-30T13:41:03.004Z,4472
2019-04-30T13:42:15.592Z,4204
2019-04-30T13:43:34.034Z,4244
2019-04-30T13:44:40.164Z,4248
2019-04-30T13:45:54.187Z,4376
2019-04-30T13:47:04.771Z,4552
2019-04-30T13:48:17.129Z,4752
2019-04-30T13:49:29.484Z,4860
2019-04-30T13:50:41.855Z,5144
2019-04-30T13:51:54.174Z,5484
2019-04-30T13:53:06.704Z,5692
2019-04-30T13:54:18.885Z,5496
2019-04-30T13:55:31.309Z,4704
2019-04-30T13:56:43.677Z,4288
2019-04-30T13:57:56.504Z,3996
2019-04-30T13:59:08.312Z,4296
2019-04-30T14:01:33.018Z,4324
2019-04-30T14:02:45.973Z,4248
2019-04-30T14:03:57.751Z,3644
2019-04-30T14:05:10.183Z,3804
2019-04-30T14:06:22.496Z,3792
2019-04-30T14:07:34.824Z,4260
2019-04-30T14:09:59.505Z,4072
2019-04-30T14:11:11.918Z,4064
2019-04-30T14:12:24.336Z,4036
2019-04-30T14:13:36.725Z,4000
2019-04-30T14:14:49.013Z,3996
2019-04-30T14:16:01.271Z,4004
2019-04-30T14:17:13.670Z,4020
2019-04-30T14:18:25.988Z,4016
2019-04-30T14:19:38.331Z,4024
2019-04-30T14:20:50.685Z,4092
2019-04-30T14:22:03.059Z,4420
2019-04-30T14:23:18.254Z,4764
2019-04-30T14:25:42.552Z,3688
2019-04-30T14:26:52.498Z,4456
2019-04-30T14:28:04.967Z,3964
2019-04-30T14:29:17.462Z,3668
2019-04-30T14:30:31.082Z,3920
2019-04-30T14:31:45.881Z,3960
2019-04-30T14:32:54.330Z,3948
2019-04-30T14:34:06.614Z,3840
2019-04-30T14:35:18.932Z,3864
2019-04-30T14:36:31.273Z,3876
2019-04-30T14:37:43.740Z,3872
2019-04-30T14:38:56.022Z,3820
2019-04-30T14:40:09.227Z,3804
2019-04-30T14:41:21.154Z,3864
2019-04-30T14:42:33.140Z,4024
2019-04-30T14:43:45.445Z,4304
2019-04-30T14:44:57.770Z,4360
2019-04-30T14:46:10.117Z,4200
2019-04-30T14:47:22.511Z,3992
2019-04-30T14:48:34.805Z,3836
2019-04-30T14:49:47.168Z,3804
2019-04-30T14:50:59.505Z,3660
2019-04-30T14:52:11.946Z,3592
2019-04-30T14:53:24.266Z,3640
2019-04-30T14:54:36.645Z,3836
2019-04-30T14:55:49.175Z,4372
2019-04-30T14:57:01.288Z,4188
2019-04-30T14:58:13.716Z,3876
2019-04-30T14:59:25.967Z,3908
2019-04-30T15:00:38.433Z,3952
2019-04-30T15:01:50.780Z,3792
2019-04-30T15:03:03.025Z,3632
2019-04-30T15:04:15.373Z,3640
2019-04-30T15:05:27.742Z,3540
2019-04-30T15:06:40.179Z,3540
2019-04-30T15:07:52.641Z,3520
